Time;durP1;ratioP1;P1;durP2;ratioP2;P2;SDS_P1;SDS_P2;PMS_P1;PMS_P2;Temp;Humidity;BMP_temperature;BMP_pressure;BME280_temperature;BME280_humidity;BME280_pressure;Samples;Min_cycle;Max_cycle;Signal;HPM_P1;HPM_P2
2022/09/09 00:00:23;;;;;;;24.63;22.13;;;15.60;99.90;;;;;;5086489;28;20396;-70
2022/09/09 00:03:02;;;;;;;23.25;20.92;;;15.60;99.90;;;;;;5087817;28;20710;-70
2022/09/09 00:05:50;;;;;;;24.17;21.65;;;15.70;99.90;;;;;;5051002;28;20873;-70
2022/09/09 00:08:20;;;;;;;24.47;21.87;;;15.80;99.90;;;;;;5051768;28;20455;-70
2022/09/09 00:10:54;;;;;;;24.98;22.30;;;15.80;99.90;;;;;;5034402;28;20568;-71
2022/09/09 00:13:59;;;;;;;25.13;22.52;;;15.80;99.90;;;;;;5052284;28;20447;-70
2022/09/09 00:16:40;;;;;;;24.50;21.90;;;15.80;99.90;;;;;;5013040;28;20612;-69
2022/09/09 00:19:21;;;;;;;29.70;25.60;;;15.90;99.90;;;;;;5032585;28;20436;-70
2022/09/09 00:22:14;;;;;;;41.00;31.45;;;15.80;99.90;;;;;;5050947;28;20800;-70
2022/09/09 00:25:04;;;;;;;36.50;29.52;;;15.70;99.90;;;;;;5031921;28;20489;-70
2022/09/09 00:27:45;;;;;;;31.95;26.60;;;15.70;99.90;;;;;;5030664;28;20823;-70
2022/09/09 00:30:20;;;;;;;28.75;24.30;;;15.70;99.90;;;;;;5032516;28;20390;-70
2022/09/09 00:32:47;;;;;;;34.30;28.67;;;15.70;99.90;;;;;;5034093;28;20393;-70
2022/09/09 00:35:25;;;;;;;29.95;24.70;;;15.70;99.90;;;;;;5036155;28;20745;-70
2022/09/09 00:37:55;;;;;;;28.83;23.53;;;15.70;99.90;;;;;;5053165;28;20446;-70
2022/09/09 00:40:35;;;;;;;29.60;24.70;;;15.70;99.90;;;;;;5037013;28;20401;-70
2022/09/09 00:43:25;;;;;;;28.50;23.45;;;15.70;99.90;;;;;;5037412;28;20385;-70
2022/09/09 00:46:15;;;;;;;25.35;22.35;;;15.70;99.90;;;;;;5054204;28;20389;-70
2022/09/09 00:49:10;;;;;;;31.63;26.00;;;15.70;99.90;;;;;;5037025;28;20969;-69
2022/09/09 00:51:59;;;;;;;26.70;22.63;;;15.70;99.90;;;;;;5053002;28;20411;-69
2022/09/09 00:54:49;;;;;;;25.00;20.75;;;15.60;99.90;;;;;;5034914;28;20662;-70
2022/09/09 00:57:33;;;;;;;28.02;22.50;;;15.60;99.90;;;;;;5035135;28;20544;-69
2022/09/09 00:59:58;;;;;;;29.15;21.95;;;15.60;99.90;;;;;;5053684;28;20490;-70
2022/09/09 01:02:52;;;;;;;21.40;19.10;;;15.70;99.90;;;;;;5051689;28;20448;-70
2022/09/09 01:05:27;;;;;;;28.25;23.88;;;15.60;99.90;;;;;;5067665;28;20692;-71
2022/09/09 01:07:54;;;;;;;21.63;19.33;;;15.50;99.90;;;;;;5067811;28;20450;-70
2022/09/09 01:10:39;;;;;;;21.55;19.02;;;15.50;99.90;;;;;;5084539;28;20787;-70
2022/09/09 01:13:14;;;;;;;19.23;17.23;;;15.50;99.90;;;;;;5083668;28;20387;-70
2022/09/09 01:15:44;;;;;;;22.33;19.38;;;15.50;99.90;;;;;;5084299;28;20753;-70
2022/09/09 01:18:14;;;;;;;19.60;17.52;;;15.50;99.90;;;;;;5085662;28;20803;-71
2022/09/09 01:20:53;;;;;;;18.98;17.08;;;15.50;99.90;;;;;;5069912;28;20508;-70
2022/09/09 01:23:38;;;;;;;16.40;14.70;;;15.40;99.90;;;;;;5086955;28;20729;-71
2022/09/09 01:26:18;;;;;;;16.88;15.20;;;15.50;99.90;;;;;;5069901;28;20374;-71
2022/09/09 01:28:47;;;;;;;20.05;17.35;;;15.50;99.90;;;;;;5070910;28;21020;-70
2022/09/09 01:31:17;;;;;;;19.80;17.73;;;15.50;99.90;;;;;;5087551;28;20387;-70
2022/09/09 01:33:43;;;;;;;18.67;16.67;;;15.50;99.90;;;;;;5089595;28;20376;-70
2022/09/09 01:36:19;;;;;;;19.98;17.85;;;15.50;99.90;;;;;;5089937;28;20536;-70
2022/09/09 01:38:45;;;;;;;21.08;18.05;;;15.50;99.90;;;;;;5071897;28;20676;-70
2022/09/09 01:41:10;;;;;;;20.25;17.73;;;15.50;99.90;;;;;;5089317;28;20384;-70
2022/09/09 01:43:37;;;;;;;17.53;15.73;;;15.50;99.90;;;;;;5088316;28;20797;-70
2022/09/09 01:46:02;;;;;;;18.45;16.48;;;15.50;99.90;;;;;;5087579;28;20392;-70
2022/09/09 01:48:29;;;;;;;18.90;16.97;;;15.50;99.90;;;;;;5087657;28;20402;-71
2022/09/09 01:50:55;;;;;;;17.23;15.53;;;15.50;99.90;;;;;;5088667;28;20384;-70
2022/09/09 01:53:22;;;;;;;16.50;14.80;;;15.50;99.90;;;;;;5089572;28;20407;-71
2022/09/09 01:56:13;;;;;;;20.40;18.20;;;15.50;99.90;;;;;;5072262;28;20538;-69
2022/09/09 01:59:16;;;;;;;18.88;16.70;;;15.50;99.90;;;;;;5088545;28;20406;-70
2022/09/09 02:02:04;;;;;;;19.75;17.23;;;15.50;99.90;;;;;;5071440;28;20425;-70
2022/09/09 02:04:43;;;;;;;22.33;18.95;;;15.50;99.90;;;;;;5071999;28;20499;-70
2022/09/09 02:07:18;;;;;;;26.40;21.67;;;15.50;99.90;;;;;;5088600;28;20388;-70
2022/09/09 02:09:49;;;;;;;21.25;18.73;;;15.40;99.90;;;;;;5068863;28;20400;-71
2022/09/09 02:12:18;;;;;;;20.70;17.85;;;15.40;99.90;;;;;;5084429;28;20384;-70
2022/09/09 02:14:52;;;;;;;21.83;17.75;;;15.40;99.90;;;;;;5087033;28;20427;-70
2022/09/09 02:17:26;;;;;;;21.75;19.17;;;15.40;99.90;;;;;;5071688;28;20627;-71
2022/09/09 02:20:00;;;;;;;21.27;18.40;;;15.30;99.90;;;;;;5087196;28;20568;-70
2022/09/09 02:22:27;;;;;;;22.67;19.35;;;15.30;99.90;;;;;;5087281;28;20668;-70
2022/09/09 02:24:56;;;;;;;18.15;15.98;;;15.30;99.90;;;;;;5087062;28;20830;-70
2022/09/09 02:27:22;;;;;;;20.73;17.65;;;15.30;99.90;;;;;;5087164;28;20391;-70
2022/09/09 02:29:51;;;;;;;18.42;16.40;;;15.40;99.90;;;;;;5087732;28;20656;-70
2022/09/09 02:32:23;;;;;;;24.67;20.57;;;15.40;99.90;;;;;;5085945;28;20426;-70
2022/09/09 02:34:57;;;;;;;24.48;20.85;;;15.40;99.90;;;;;;5086566;28;20383;-70
2022/09/09 02:37:28;;;;;;;19.63;17.58;;;15.30;99.90;;;;;;5087739;28;20387;-70
2022/09/09 02:39:54;;;;;;;20.95;18.73;;;15.30;99.90;;;;;;5085872;28;20442;-70
2022/09/09 02:42:20;;;;;;;18.97;16.97;;;15.20;99.90;;;;;;5087485;28;20441;-70
2022/09/09 02:44:46;;;;;;;17.30;15.47;;;15.20;99.90;;;;;;5086451;28;20698;-70
2022/09/09 02:47:43;;;;;;;16.60;14.20;;;15.20;99.90;;;;;;5086688;28;20839;-70
2022/09/09 02:50:31;;;;;;;16.88;15.05;;;15.30;99.90;;;;;;5068924;28;20376;-70
2022/09/09 02:53:03;;;;;;;16.70;14.90;;;15.40;99.90;;;;;;5071732;28;20387;-70
2022/09/09 02:55:36;;;;;;;15.88;14.07;;;15.40;99.90;;;;;;5068496;28;20383;-70
2022/09/09 02:58:06;;;;;;;17.10;15.25;;;15.40;99.90;;;;;;5068174;28;20388;-70
2022/09/09 03:00:33;;;;;;;16.50;14.80;;;15.40;99.90;;;;;;5087549;28;20464;-70
2022/09/09 03:02:59;;;;;;;18.30;16.33;;;15.30;99.90;;;;;;5086478;28;20494;-70
2022/09/09 03:05:26;;;;;;;17.17;15.10;;;15.20;99.90;;;;;;5086594;28;20518;-69
2022/09/09 03:07:51;;;;;;;18.15;16.25;;;15.20;99.90;;;;;;5085973;28;20388;-70
2022/09/09 03:10:17;;;;;;;15.47;13.87;;;15.10;99.90;;;;;;5083939;28;20667;-70
2022/09/09 03:12:43;;;;;;;13.73;12.33;;;15.20;99.90;;;;;;5086452;28;20391;-70
2022/09/09 03:15:09;;;;;;;17.05;15.25;;;15.20;99.90;;;;;;5085288;28;20664;-70
2022/09/09 03:17:36;;;;;;;16.00;14.32;;;15.20;99.90;;;;;;5085853;28;20826;-70
2022/09/09 03:20:05;;;;;;;18.00;16.10;;;15.10;99.90;;;;;;5069791;28;20654;-70
2022/09/09 03:22:31;;;;;;;15.65;14.05;;;15.20;99.90;;;;;;5070285;28;20653;-70
2022/09/09 03:24:56;;;;;;;13.20;11.90;;;15.20;99.90;;;;;;5071439;28;20605;-71
2022/09/09 03:27:22;;;;;;;14.77;13.27;;;15.20;99.90;;;;;;5085204;28;20458;-70
2022/09/09 03:29:50;;;;;;;13.82;12.43;;;15.20;99.90;;;;;;5085853;28;20624;-70
2022/09/09 03:32:17;;;;;;;13.25;11.95;;;15.20;99.90;;;;;;5088207;28;20671;-70
2022/09/09 03:34:43;;;;;;;13.82;12.48;;;15.20;99.90;;;;;;5071726;28;20391;-70
2022/09/09 03:37:08;;;;;;;12.82;11.60;;;15.20;99.90;;;;;;5087800;28;20394;-70
2022/09/09 03:39:34;;;;;;;12.80;11.60;;;15.20;99.90;;;;;;5088009;28;20407;-71
2022/09/09 03:42:03;;;;;;;11.70;10.68;;;15.20;99.90;;;;;;5088520;28;20652;-71
2022/09/09 03:44:30;;;;;;;12.85;11.57;;;15.30;99.90;;;;;;5087419;28;20380;-71
2022/09/09 03:46:56;;;;;;;15.30;13.77;;;15.20;99.90;;;;;;5070824;28;20403;-69
2022/09/09 03:49:22;;;;;;;13.43;12.20;;;15.20;99.90;;;;;;5070712;28;20392;-71
2022/09/09 03:51:48;;;;;;;16.33;14.63;;;15.10;99.90;;;;;;5071417;28;20380;-70
2022/09/09 03:54:13;;;;;;;15.48;13.98;;;15.10;99.90;;;;;;5086563;28;20384;-70
2022/09/09 03:56:41;;;;;;;12.50;11.30;;;15.00;99.90;;;;;;5087707;28;20872;-70
2022/09/09 03:59:08;;;;;;;12.43;11.23;;;15.00;99.90;;;;;;5072442;28;20404;-69
2022/09/09 04:01:34;;;;;;;14.98;13.57;;;15.10;99.90;;;;;;5088227;28;20392;-69
2022/09/09 04:03:59;;;;;;;13.57;12.27;;;15.10;99.90;;;;;;5072068;28;20438;-69
2022/09/09 04:06:25;;;;;;;13.63;12.30;;;15.00;99.90;;;;;;5089067;28;20783;-69
2022/09/09 04:08:52;;;;;;;14.30;12.85;;;15.00;99.90;;;;;;5073825;28;20642;-69
2022/09/09 04:11:18;;;;;;;13.40;12.10;;;15.00;99.90;;;;;;5089431;28;20445;-70
2022/09/09 04:13:44;;;;;;;13.25;11.95;;;15.00;99.90;;;;;;5086411;28;20391;-69
2022/09/09 04:16:11;;;;;;;15.63;13.87;;;15.00;99.90;;;;;;5066097;28;20771;-70
2022/09/09 04:18:36;;;;;;;13.97;12.57;;;15.00;99.90;;;;;;5078415;28;20396;-69
2022/09/09 04:21:04;;;;;;;13.37;12.07;;;15.00;99.90;;;;;;5076983;28;20388;-69
2022/09/09 04:23:29;;;;;;;12.48;11.10;;;15.00;99.90;;;;;;5062530;28;20467;-70
2022/09/09 04:25:57;;;;;;;14.27;12.87;;;15.00;99.90;;;;;;5078283;28;20624;-70
2022/09/09 04:28:25;;;;;;;14.32;12.77;;;15.00;99.90;;;;;;5079308;28;20376;-70
2022/09/09 04:30:52;;;;;;;12.32;11.13;;;14.90;99.90;;;;;;5079477;28;20442;-69
2022/09/09 04:33:18;;;;;;;13.32;11.95;;;15.00;99.90;;;;;;5083057;28;20400;-70
2022/09/09 04:35:47;;;;;;;13.73;12.35;;;15.00;99.90;;;;;;5083931;28;20668;-70
2022/09/09 04:38:14;;;;;;;13.18;11.88;;;14.90;99.90;;;;;;5084410;28;20772;-70
2022/09/09 04:40:43;;;;;;;14.00;12.60;;;14.90;99.90;;;;;;5082544;28;20733;-70
2022/09/09 04:43:09;;;;;;;12.93;11.63;;;14.90;99.90;;;;;;5083431;28;20387;-70
2022/09/09 04:45:35;;;;;;;12.27;11.07;;;14.90;99.90;;;;;;5084165;28;20427;-71
2022/09/09 04:48:02;;;;;;;11.23;10.23;;;14.90;99.90;;;;;;5081849;28;20444;-70
2022/09/09 04:50:28;;;;;;;11.73;10.63;;;14.90;99.90;;;;;;5081751;28;20663;-70
2022/09/09 04:52:53;;;;;;;12.18;11.05;;;15.00;99.90;;;;;;5064375;28;20726;-71
2022/09/09 04:55:19;;;;;;;12.85;11.55;;;15.00;99.90;;;;;;5063265;28;20463;-71
2022/09/09 04:57:45;;;;;;;10.68;9.60;;;15.00;99.90;;;;;;5080380;28;20384;-71
2022/09/09 05:00:12;;;;;;;10.90;9.80;;;15.00;99.90;;;;;;5080977;28;20909;-71
2022/09/09 05:02:38;;;;;;;11.20;10.10;;;15.10;99.90;;;;;;5082312;28;20438;-71
2022/09/09 05:05:04;;;;;;;12.48;11.27;;;15.10;99.90;;;;;;5081943;28;20734;-70
2022/09/09 05:07:31;;;;;;;11.57;10.48;;;15.10;99.90;;;;;;5082707;28;20449;-71
2022/09/09 05:09:57;;;;;;;10.95;9.85;;;15.10;99.90;;;;;;5063260;28;20884;-71
2022/09/09 05:12:24;;;;;;;9.93;8.93;;;15.10;99.90;;;;;;5075892;28;20810;-70
2022/09/09 05:14:50;;;;;;;11.13;9.23;;;15.10;99.90;;;;;;5073759;28;20422;-71
2022/09/09 05:17:16;;;;;;;11.20;10.10;;;15.20;99.90;;;;;;5075297;28;20402;-71
2022/09/09 05:19:42;;;;;;;10.15;9.18;;;15.10;99.90;;;;;;5076187;28;20403;-71
2022/09/09 05:22:08;;;;;;;10.98;9.85;;;15.10;99.90;;;;;;5060500;28;20705;-71
2022/09/09 05:24:34;;;;;;;11.13;9.98;;;15.10;99.90;;;;;;5077116;28;20380;-70
2022/09/09 05:27:01;;;;;;;10.93;9.83;;;15.10;99.90;;;;;;5080114;28;20974;-71
2022/09/09 05:29:27;;;;;;;9.70;8.80;;;15.10;99.90;;;;;;5082699;28;20390;-71
2022/09/09 05:31:52;;;;;;;10.07;9.17;;;15.10;99.90;;;;;;5082310;28;20629;-71
2022/09/09 05:34:19;;;;;;;10.50;9.37;;;15.10;99.90;;;;;;5081604;28;20442;-71
2022/09/09 05:36:44;;;;;;;9.15;8.30;;;15.10;99.90;;;;;;5079111;28;20482;-71
2022/09/09 05:39:11;;;;;;;10.40;9.40;;;15.20;99.90;;;;;;5060915;28;20464;-71
2022/09/09 05:41:39;;;;;;;11.07;10.05;;;15.20;99.90;;;;;;5075284;28;20460;-70
2022/09/09 05:44:06;;;;;;;10.38;9.27;;;15.20;99.90;;;;;;5074810;28;20384;-71
2022/09/09 05:46:31;;;;;;;9.15;8.35;;;15.20;99.90;;;;;;5074971;28;20465;-72
2022/09/09 05:48:58;;;;;;;9.93;9.02;;;15.20;99.90;;;;;;5059426;28;20415;-71
2022/09/09 05:51:26;;;;;;;9.55;8.65;;;15.20;99.90;;;;;;5073525;28;20716;-71
2022/09/09 05:53:52;;;;;;;11.57;10.30;;;15.20;99.90;;;;;;5077060;28;20391;-70
2022/09/09 05:56:21;;;;;;;9.93;8.93;;;15.10;99.90;;;;;;5073934;28;20392;-70
2022/09/09 05:58:49;;;;;;;11.15;9.95;;;15.10;99.90;;;;;;5071128;28;20411;-71
2022/09/09 06:01:19;;;;;;;11.70;10.43;;;15.20;99.90;;;;;;5071324;28;20857;-70
2022/09/09 06:03:48;;;;;;;11.30;10.10;;;15.10;99.90;;;;;;5068913;28;20416;-70
2022/09/09 06:06:20;;;;;;;10.88;9.70;;;15.10;99.90;;;;;;5066602;28;20468;-70
2022/09/09 06:08:46;;;;;;;9.05;8.15;;;15.00;99.90;;;;;;5065827;28;20384;-70
2022/09/09 06:11:13;;;;;;;9.90;8.90;;;15.00;99.90;;;;;;5049720;28;20414;-71
2022/09/09 06:13:39;;;;;;;9.40;8.50;;;15.10;99.90;;;;;;5064309;28;20868;-70
2022/09/09 06:16:16;;;;;;;11.10;8.35;;;15.10;99.90;;;;;;5065930;28;20888;-70
2022/09/09 06:18:42;;;;;;;8.00;7.10;;;15.00;99.90;;;;;;5066281;28;20387;-71
2022/09/09 06:21:23;;;;;;;8.27;7.35;;;15.10;99.90;;;;;;5063882;28;20491;-70
2022/09/09 06:23:50;;;;;;;9.38;8.38;;;15.20;99.90;;;;;;5066570;28;20387;-71
2022/09/09 06:26:23;;;;;;;7.72;6.93;;;15.20;99.90;;;;;;5067569;28;20662;-72
2022/09/09 06:28:52;;;;;;;9.13;7.80;;;15.10;99.90;;;;;;5070735;28;20387;-72
2022/09/09 06:31:23;;;;;;;11.75;7.90;;;15.10;99.90;;;;;;5072040;28;20414;-71
2022/09/09 06:33:51;;;;;;;9.48;7.15;;;15.00;99.90;;;;;;5081315;28;20453;-71
2022/09/09 06:36:25;;;;;;;9.07;6.82;;;14.90;99.90;;;;;;5065043;28;20384;-72
2022/09/09 06:38:51;;;;;;;10.07;7.55;;;15.00;99.90;;;;;;5073232;28;20458;-72
2022/09/09 06:41:18;;;;;;;7.20;6.30;;;15.00;99.90;;;;;;5070782;28;20531;-70
2022/09/09 06:43:44;;;;;;;7.45;6.53;;;15.00;99.90;;;;;;5067387;28;20662;-70
2022/09/09 06:46:32;;;;;;;8.23;6.95;;;15.00;99.90;;;;;;5068549;28;20387;-71
2022/09/09 06:48:58;;;;;;;9.32;6.90;;;15.10;99.90;;;;;;5053254;28;20494;-71
2022/09/09 06:51:27;;;;;;;6.30;5.72;;;15.10;99.90;;;;;;5071861;28;20595;-71
2022/09/09 06:53:54;;;;;;;9.95;6.60;;;15.00;99.90;;;;;;5070116;28;20459;-72
2022/09/09 06:56:32;;;;;;;8.02;5.30;;;15.10;99.90;;;;;;5069650;28;20686;-72
2022/09/09 06:59:03;;;;;;;6.60;5.22;;;15.20;99.90;;;;;;5052207;28;20639;-72
2022/09/09 07:01:31;;;;;;;4.47;4.05;;;15.30;99.90;;;;;;5066992;28;20441;-71
2022/09/09 07:03:59;;;;;;;4.50;4.10;;;15.30;99.90;;;;;;5064020;28;20784;-71
2022/09/09 07:06:27;;;;;;;4.18;3.78;;;15.50;99.90;;;;;;5064777;28;20613;-71
2022/09/09 07:08:55;;;;;;;5.30;4.57;;;15.60;99.90;;;;;;5071779;28;20467;-72
2022/09/09 07:11:22;;;;;;;7.33;4.97;;;15.60;99.90;;;;;;5072368;28;20666;-72
2022/09/09 07:13:48;;;;;;;7.03;4.75;;;15.60;99.90;;;;;;5070100;28;20847;-71
2022/09/09 07:16:18;;;;;;;6.25;4.15;;;15.60;99.90;;;;;;5070269;28;20441;-71
2022/09/09 07:18:44;;;;;;;6.70;5.00;;;15.60;99.90;;;;;;5071243;28;20447;-70
2022/09/09 07:21:12;;;;;;;7.90;4.77;;;15.50;99.90;;;;;;5074380;28;20394;-70
2022/09/09 07:23:38;;;;;;;6.85;4.70;;;15.40;99.90;;;;;;5074192;28;20391;-70
2022/09/09 07:26:16;;;;;;;7.85;4.70;;;15.40;99.90;;;;;;5074761;28;20379;-71
2022/09/09 07:28:42;;;;;;;6.88;4.60;;;15.40;99.90;;;;;;5070994;28;20379;-71
2022/09/09 07:31:17;;;;;;;4.75;4.28;;;15.40;99.90;;;;;;5069491;28;20393;-71
2022/09/09 07:33:44;;;;;;;4.95;4.03;;;15.40;99.90;;;;;;5069731;28;20387;-72
2022/09/09 07:36:23;;;;;;;6.63;4.60;;;15.50;99.90;;;;;;5072113;28;20800;-72
2022/09/09 07:38:57;;;;;;;4.05;3.47;;;15.40;99.90;;;;;;5071667;28;20504;-72
2022/09/09 07:41:28;;;;;;;3.97;3.10;;;15.60;99.90;;;;;;5068445;28;20918;-72
2022/09/09 07:43:54;;;;;;;4.10;3.50;;;15.80;99.90;;;;;;5070329;28;20768;-73
2022/09/09 07:46:22;;;;;;;4.75;4.20;;;15.80;99.90;;;;;;5053454;28;20865;-71
2022/09/09 07:48:53;;;;;;;6.10;4.22;;;15.90;99.90;;;;;;5051952;28;20476;-72
2022/09/09 07:51:29;;;;;;;5.72;4.03;;;15.90;99.90;;;;;;5068770;28;20604;-70
2022/09/09 07:54:01;;;;;;;5.13;4.07;;;15.90;99.90;;;;;;5069773;28;20571;-71
2022/09/09 07:56:29;;;;;;;4.35;3.30;;;16.00;99.90;;;;;;5069302;28;20387;-70
2022/09/09 07:58:55;;;;;;;3.23;2.87;;;16.10;99.90;;;;;;5054205;28;20529;-71
2022/09/09 08:01:23;;;;;;;8.65;4.28;;;16.20;99.90;;;;;;5055257;28;20386;-70
2022/09/09 08:04:01;;;;;;;6.47;3.70;;;16.20;99.90;;;;;;5070020;28;20407;-70
2022/09/09 08:06:28;;;;;;;7.70;4.15;;;16.20;99.90;;;;;;5069747;28;20455;-71
2022/09/09 08:08:55;;;;;;;5.37;3.60;;;16.10;99.90;;;;;;5048660;28;20695;-71
2022/09/09 08:11:22;;;;;;;8.00;4.28;;;16.10;99.90;;;;;;5066644;28;20622;-71
2022/09/09 08:13:49;;;;;;;4.95;3.65;;;16.10;99.90;;;;;;5067625;28;20398;-71
2022/09/09 08:16:27;;;;;;;5.50;4.37;;;16.20;99.90;;;;;;5068019;28;20648;-71
2022/09/09 08:18:53;;;;;;;4.88;3.63;;;16.10;99.90;;;;;;5064332;28;20437;-71
2022/09/09 08:21:23;;;;;;;6.00;4.38;;;16.10;99.90;;;;;;5064804;28;20829;-71
2022/09/09 08:23:51;;;;;;;3.97;3.55;;;16.20;99.90;;;;;;5053804;28;20764;-71
2022/09/09 08:26:28;;;;;;;5.75;3.97;;;16.20;99.90;;;;;;5073165;28;21021;-71
2022/09/09 08:28:56;;;;;;;4.00;3.00;;;16.40;99.90;;;;;;5073217;28;20774;-71
2022/09/09 08:31:23;;;;;;;4.88;3.50;;;16.50;99.90;;;;;;5074254;28;20517;-71
2022/09/09 08:33:50;;;;;;;3.35;2.72;;;16.50;99.90;;;;;;5058499;28;20452;-72
2022/09/09 08:36:18;;;;;;;5.38;3.55;;;16.70;99.90;;;;;;5076152;28;20394;-72
2022/09/09 08:38:47;;;;;;;3.70;3.20;;;16.80;99.90;;;;;;5075367;28;20425;-71
2022/09/09 08:41:50;;;;;;;5.47;3.70;;;16.80;99.90;;;;;;5071986;28;20668;-72
2022/09/09 08:44:35;;;;;;;4.05;2.90;;;16.80;99.90;;;;;;5054642;28;20379;-72
2022/09/09 08:47:04;;;;;;;4.40;3.03;;;16.90;99.90;;;;;;5057294;28;20494;-71
2022/09/09 08:49:49;;;;;;;5.88;3.53;;;16.90;99.90;;;;;;5057745;28;20642;-72
2022/09/09 08:52:25;;;;;;;5.82;3.90;;;16.90;99.90;;;;;;5056782;28;20402;-72
2022/09/09 08:54:51;;;;;;;2.75;2.40;;;16.90;99.90;;;;;;5072962;28;20914;-72
2022/09/09 08:57:27;;;;;;;4.15;3.28;;;17.00;99.90;;;;;;5072813;28;20419;-72
2022/09/09 08:59:55;;;;;;;7.18;3.50;;;17.00;99.90;;;;;;5071163;28;20467;-72
2022/09/09 09:02:53;;;;;;;7.22;3.92;;;17.00;99.90;;;;;;5069631;28;20469;-72
2022/09/09 09:05:29;;;;;;;4.07;3.03;;;16.90;99.90;;;;;;5068729;28;20524;-72
2022/09/09 09:08:26;;;;;;;5.72;2.90;;;16.90;99.90;;;;;;5064428;28;20498;-72
2022/09/09 09:10:56;;;;;;;4.80;2.80;;;17.00;99.90;;;;;;5067648;28;20886;-72
2022/09/09 09:13:45;;;;;;;3.08;2.10;;;17.20;99.90;;;;;;5071052;28;20418;-72
2022/09/09 09:16:22;;;;;;;2.83;2.40;;;17.40;99.90;;;;;;5074744;28;20729;-72
2022/09/09 09:18:47;;;;;;;2.47;2.28;;;17.60;99.90;;;;;;5075925;28;20398;-72
2022/09/09 09:21:34;;;;;;;5.97;2.90;;;17.70;99.90;;;;;;5075374;28;20384;-72
2022/09/09 09:24:01;;;;;;;3.85;2.50;;;17.80;99.90;;;;;;5075474;28;20383;-72
2022/09/09 09:26:44;;;;;;;5.20;3.15;;;17.80;99.90;;;;;;5073921;28;20635;-72
2022/09/09 09:29:18;;;;;;;3.92;2.50;;;17.60;99.90;;;;;;5080238;28;20403;-72
2022/09/09 09:31:54;;;;;;;7.45;3.00;;;17.70;99.90;;;;;;5080935;28;20702;-72
2022/09/09 09:34:20;;;;;;;3.53;2.10;;;17.70;99.90;;;;;;5066540;28;20396;-72
2022/09/09 09:37:04;;;;;;;4.30;2.20;;;17.80;99.90;;;;;;5083069;28;20380;-72
2022/09/09 09:39:36;;;;;;;5.57;3.00;;;17.90;99.90;;;;;;5065976;28;20395;-72
2022/09/09 09:42:13;;;;;;;5.22;2.28;;;17.80;99.90;;;;;;5082057;28;20475;-72
2022/09/09 09:44:39;;;;;;;3.28;1.92;;;17.80;99.90;;;;;;5081174;28;20388;-72
2022/09/09 09:47:13;;;;;;;2.78;1.73;;;17.80;99.90;;;;;;5077256;28;20423;-71
2022/09/09 09:49:39;;;;;;;3.10;2.30;;;18.00;99.90;;;;;;5080260;28;20483;-71
2022/09/09 09:52:06;;;;;;;4.13;2.55;;;18.10;99.90;;;;;;5080805;28;20383;-71
2022/09/09 09:54:42;;;;;;;3.72;2.25;;;18.10;99.90;;;;;;5082167;28;20384;-71
2022/09/09 09:57:12;;;;;;;5.40;3.00;;;18.20;99.90;;;;;;5084136;28;20391;-71
2022/09/09 09:59:39;;;;;;;4.03;2.07;;;18.20;99.90;;;;;;5083390;28;21169;-71
2022/09/09 10:02:26;;;;;;;5.78;2.50;;;18.30;99.90;;;;;;5065665;28;20484;-71
2022/09/09 10:05:25;;;;;;;3.65;1.90;;;18.10;99.90;;;;;;5065857;28;20561;-71
2022/09/09 10:08:13;;;;;;;3.17;2.35;;;18.10;99.90;;;;;;5060571;28;20380;-71
2022/09/09 10:10:51;;;;;;;5.72;2.25;;;18.10;99.90;;;;;;5082535;28;20383;-64
2022/09/09 10:13:29;;;;;;;2.97;1.95;;;18.10;99.90;;;;;;5065512;28;20453;-65
2022/09/09 10:16:18;;;;;;;3.60;2.10;;;18.30;99.90;;;;;;5079898;28;20659;-65
2022/09/09 10:19:00;;;;;;;3.50;1.65;;;18.30;99.90;;;;;;5063817;28;20419;-64
2022/09/09 10:21:31;;;;;;;4.35;2.15;;;18.30;99.90;;;;;;5080293;28;20391;-65
2022/09/09 10:24:18;;;;;;;3.20;1.45;;;18.30;99.90;;;;;;5066026;28;20560;-64
2022/09/09 10:27:11;;;;;;;2.65;1.50;;;18.50;99.90;;;;;;5060791;28;20380;-71
2022/09/09 10:30:13;;;;;;;2.80;1.40;;;18.60;99.90;;;;;;5059504;28;20462;-71
2022/09/09 10:32:50;;;;;;;3.75;1.60;;;18.70;99.90;;;;;;5072793;28;20461;-71
2022/09/09 10:35:40;;;;;;;2.30;1.33;;;18.90;99.90;;;;;;5055466;28;20731;-70
2022/09/09 10:38:27;;;;;;;2.83;1.38;;;19.00;99.90;;;;;;5054237;28;20465;-71
2022/09/09 10:40:53;;;;;;;1.92;1.15;;;19.20;99.90;;;;;;5070585;28;20391;-70
2022/09/09 10:43:39;;;;;;;2.90;1.30;;;19.30;99.90;;;;;;5055692;28;20579;-70
2022/09/09 10:46:23;;;;;;;2.83;1.40;;;19.30;99.90;;;;;;5056440;28;20640;-70
2022/09/09 10:49:00;;;;;;;3.92;1.27;;;19.50;99.90;;;;;;5056337;28;20486;-69
2022/09/09 10:51:29;;;;;;;2.10;1.27;;;19.70;99.90;;;;;;5054534;28;20466;-70
2022/09/09 10:54:09;;;;;;;1.95;1.10;;;19.90;99.90;;;;;;5052571;28;20522;-70
2022/09/09 10:56:35;;;;;;;2.72;1.40;;;20.20;99.90;;;;;;5051117;28;20387;-70
2022/09/09 10:59:09;;;;;;;3.28;1.30;;;20.10;99.90;;;;;;5069040;28;20627;-70
2022/09/09 11:01:58;;;;;;;2.63;1.20;;;19.90;99.90;;;;;;5053983;28;20399;-71
2022/09/09 11:04:43;;;;;;;4.00;1.30;;;19.80;99.90;;;;;;5071265;28;20663;-69
2022/09/09 11:07:17;;;;;;;2.53;1.20;;;19.80;99.90;;;;;;5071793;28;20617;-69
2022/09/09 11:09:50;;;;;;;1.88;0.80;;;19.70;99.90;;;;;;5070395;28;20680;-69
2022/09/09 11:12:20;;;;;;;4.18;1.42;;;19.70;99.90;;;;;;5072061;28;20451;-71
2022/09/09 11:15:01;;;;;;;3.25;1.20;;;19.90;99.90;;;;;;5056967;28;20395;-70
2022/09/09 11:17:36;;;;;;;2.05;1.00;;;20.00;99.90;;;;;;5072842;28;20430;-70
2022/09/09 11:20:01;;;;;;;2.60;1.43;;;20.30;99.90;;;;;;5074288;28;20407;-71
2022/09/09 11:22:38;;;;;;;2.10;1.17;;;20.30;99.90;;;;;;5075325;28;20452;-71
2022/09/09 11:25:27;;;;;;;1.98;0.90;;;20.50;99.90;;;;;;5061035;28;20682;-71
2022/09/09 11:28:22;;;;;;;1.42;0.90;;;20.70;99.90;;;;;;5086513;28;20509;-70
2022/09/09 11:31:11;;;;;;;3.40;1.27;;;21.10;99.90;;;;;;5087999;28;20503;-70
2022/09/09 11:33:57;;;;;;;1.90;1.00;;;21.00;99.90;;;;;;5071765;28;20410;-69
2022/09/09 11:36:49;;;;;;;2.92;1.50;;;21.10;99.90;;;;;;5073768;28;20427;-70
2022/09/09 11:39:54;;;;;;;2.70;0.98;;;20.90;99.90;;;;;;5087910;28;20433;-70
2022/09/09 11:42:23;;;;;;;3.88;1.67;;;21.00;99.90;;;;;;5068404;28;20379;-70
2022/09/09 11:44:49;;;;;;;2.55;1.23;;;20.80;99.90;;;;;;5087279;28;20440;-71
2022/09/09 11:47:29;;;;;;;1.25;0.82;;;20.60;99.90;;;;;;5087367;28;20399;-71
2022/09/09 11:50:14;;;;;;;2.00;1.08;;;20.60;99.90;;;;;;5084878;28;20391;-71
2022/09/09 11:52:46;;;;;;;2.57;1.10;;;20.60;99.90;;;;;;5067352;28;20383;-71
2022/09/09 11:55:29;;;;;;;2.33;1.10;;;20.50;99.90;;;;;;5068606;28;20391;-71
2022/09/09 11:58:03;;;;;;;2.38;1.13;;;20.50;99.90;;;;;;5068510;28;20387;-71
2022/09/09 12:00:38;;;;;;;2.22;1.27;;;20.50;99.90;;;;;;5083945;28;20612;-71
2022/09/09 12:03:05;;;;;;;3.78;1.58;;;20.70;99.90;;;;;;5084223;28;20457;-71
2022/09/09 12:05:42;;;;;;;2.22;1.25;;;20.90;99.90;;;;;;5032773;28;20413;-70
2022/09/09 12:08:10;;;;;;;3.47;1.50;;;21.20;99.90;;;;;;5029202;28;20390;-70
2022/09/09 12:10:40;;;;;;;2.55;1.10;;;21.40;99.90;;;;;;5029307;28;20399;-71
2022/09/09 12:13:19;;;;;;;1.77;0.90;;;21.50;99.90;;;;;;5028813;28;20439;-70
2022/09/09 12:15:51;;;;;;;3.08;1.48;;;21.40;99.90;;;;;;5029392;28;20500;-70
2022/09/09 12:18:25;;;;;;;2.88;1.23;;;21.30;99.90;;;;;;5030294;28;20408;-70
2022/09/09 12:21:03;;;;;;;3.30;1.30;;;21.20;99.90;;;;;;5028174;28;20416;-72
2022/09/09 12:23:50;;;;;;;3.25;1.40;;;20.90;99.90;;;;;;5026765;28;20401;-70
2022/09/09 12:26:48;;;;;;;3.00;1.23;;;20.80;99.90;;;;;;5029003;28;20381;-71
2022/09/09 12:29:21;;;;;;;2.95;1.30;;;20.80;99.90;;;;;;5029093;28;20451;-71
2022/09/09 12:32:02;;;;;;;2.13;0.97;;;20.70;99.90;;;;;;5029193;28;20929;-71
2022/09/09 12:34:33;;;;;;;1.52;1.08;;;20.80;99.90;;;;;;5044523;28;20389;-71
2022/09/09 12:37:05;;;;;;;3.05;1.00;;;20.80;99.90;;;;;;5027961;28;20485;-71
2022/09/09 12:39:37;;;;;;;4.63;1.67;;;20.90;99.90;;;;;;5027441;28;20441;-70
2022/09/09 12:42:04;;;;;;;4.07;1.45;;;21.00;99.90;;;;;;5026083;28;20373;-70
2022/09/09 12:44:30;;;;;;;3.10;1.27;;;21.10;99.90;;;;;;5027811;28;20828;-70
2022/09/09 12:47:00;;;;;;;2.65;1.25;;;21.40;99.90;;;;;;5028999;28;20397;-70
2022/09/09 12:49:34;;;;;;;3.88;1.50;;;21.40;99.90;;;;;;5047180;28;20431;-71
2022/09/09 12:52:02;;;;;;;2.72;1.40;;;21.50;99.90;;;;;;5030716;28;20390;-71
2022/09/09 12:54:27;;;;;;;3.13;1.20;;;21.50;99.90;;;;;;5048124;28;20396;-70
2022/09/09 12:56:54;;;;;;;4.38;1.48;;;21.50;99.90;;;;;;5031521;28;20411;-73
2022/09/09 12:59:25;;;;;;;2.97;1.60;;;21.30;99.90;;;;;;5032734;28;20397;-73
2022/09/09 13:01:58;;;;;;;3.63;1.60;;;21.20;99.90;;;;;;5033809;28;20875;-72
2022/09/09 13:04:24;;;;;;;3.33;1.50;;;21.00;99.90;;;;;;5050368;28;20566;-73
2022/09/09 13:06:52;;;;;;;4.67;1.73;;;20.90;99.90;;;;;;5087137;28;20399;-73